Aérodrome :
LOGIN :

S'inscrire | Disclaimer

   EN    FR    IT 

 










Légende :    VFR   VFR Marginal   IFR   IFR Intensif   IFR Très Intensif
Visi : 
Plafond : 
>= 8 km
>= 3000ft
5 à 8 km
1000 à 3000 ft
1500m à 5 km
500 à 1000 ft
800 à 1500m
200 à 500 ft
< 800m
< 200 ft
Symboles :   Orages  Brouillard  Fortes neiges  Fortes précipitations  Vent > 20 kt
SIGMETs :   Divers  Orages  Givrage  Turbulence  Onde Orograph.  Cendres Volcan.






- Altitude de l'aérodrome : 436 ft
- Code IATA : ANG


LFBU - Angoulême Brie Champniers

DERNIER METAR :
  • 152000Z AUTO 00000KT CAVOK 11/09 Q1008 NOSIG

METARs EXPIRÉS :
  • 151930Z AUTO 27002KT 9999 SCT042 OVC054 12/09 Q1008 NOSIG
  • 151900Z AUTO 22001KT 9999 FEW039 OVC054 12/10 Q1008 NOSIG
  • 151830Z AUTO VRB01KT 9999 BKN038 BKN047 OVC054 12/10 Q1008 NOSIG
  • 151800Z AUTO VRB02KT 9999 BKN030 BKN041 OVC052 12/10 Q1007 NOSIG
  • 151730Z AUTO 18003KT 140V230 9999 SCT028 SCT033 BKN043 12/10 Q1008 NOSIG

TAF TAF LFBU
Valide du 15 à 18h jusqu'au 16 à 18h UTC


151700Z 1518/1618 20005KT 9999 -RA BKN040
FM160200 15010KT CAVOK
TEMPO 1608/1618 15015G25KT



MET'MAP, la Météo Aéronautique d'un coup d'oeil ! - Copyright ORBIFLY Décembre 2007 - Disclaimer

ORBIFLY MET'MAP TEAM :

Programmation & Développement : Alexandra Zaïnal
Sur une idée originale de : Baudouin d'Aumeries
Assistance à la programmation : Marc-Olivier Méhu
Soutien technique & logistique : Manuel Goepfert

Contact : metmap@orbifly.com




SOURCES & CREDITS :

   NOAA